createdAt,value
2024-05-09T00:00:22.160Z,5.90
2024-05-09T00:01:31.544Z,6.10
2024-05-09T00:02:33.751Z,6.60
2024-05-09T00:03:35.872Z,6.57
2024-05-09T00:04:41.013Z,5.43
2024-05-09T00:05:44.462Z,5.68
2024-05-09T00:06:49.633Z,5.72
2024-05-09T00:07:51.845Z,7.10
2024-05-09T00:08:56.801Z,6.53
2024-05-09T00:09:58.947Z,6.90
2024-05-09T00:11:04.203Z,5.80
2024-05-09T00:12:06.611Z,6.13
2024-05-09T00:13:12.150Z,5.80
2024-05-09T00:14:16.989Z,6.05
2024-05-09T00:15:22.028Z,5.50
2024-05-09T00:16:24.146Z,5.90
2024-05-09T00:17:29.108Z,5.70
2024-05-09T00:18:33.381Z,6.20
2024-05-09T00:19:38.384Z,5.82
2024-05-09T00:20:41.377Z,5.38
2024-05-09T00:21:46.555Z,5.82
2024-05-09T00:22:48.997Z,5.88
2024-05-09T00:23:54.057Z,5.72
2024-05-09T00:24:56.189Z,5.60
2024-05-09T00:26:01.252Z,5.60
2024-05-09T00:27:04.078Z,5.32
2024-05-09T00:28:06.872Z,5.80
2024-05-09T00:29:11.605Z,5.45
2024-05-09T00:30:24.240Z,5.88
2024-05-09T00:31:36.236Z,5.85
2024-05-09T00:32:38.708Z,5.53
2024-05-09T00:33:43.888Z,6.07
2024-05-09T00:34:46.520Z,5.55
2024-05-09T00:35:51.365Z,5.95
2024-05-09T00:36:53.611Z,5.88
2024-05-09T00:37:56.102Z,6.10
2024-05-09T00:39:00.867Z,5.20
2024-05-09T00:40:03.643Z,5.47
2024-05-09T00:41:08.490Z,5.03
2024-05-09T00:42:10.588Z,5.30
2024-05-09T00:43:15.674Z,5.65
2024-05-09T00:44:17.909Z,5.45
2024-05-09T00:45:25.557Z,4.97
2024-05-09T00:46:27.751Z,5.90
2024-05-09T00:47:33.492Z,5.25
2024-05-09T00:48:35.867Z,5.72
2024-05-09T00:49:40.963Z,5.80
2024-05-09T00:50:45.233Z,6.30
2024-05-09T00:51:51.001Z,5.40
2024-05-09T00:52:53.235Z,6.13
2024-05-09T00:53:58.295Z,5.45
2024-05-09T00:55:01.621Z,5.13
2024-05-09T00:56:05.712Z,5.68
2024-05-09T00:57:10.465Z,5.18
2024-05-09T00:58:16.184Z,5.15
2024-05-09T00:59:21.946Z,5.57
2024-05-09T01:00:34.974Z,4.95
2024-05-09T01:01:45.656Z,5.68
2024-05-09T01:02:48.216Z,5.60
2024-05-09T01:03:54.049Z,6.20
2024-05-09T01:04:56.940Z,4.85
2024-05-09T01:06:02.113Z,4.90
2024-05-09T01:07:04.573Z,5.80
2024-05-09T01:08:10.959Z,5.30
2024-05-09T01:09:13.245Z,5.45
2024-05-09T01:10:24.312Z,5.90
2024-05-09T01:11:36.708Z,5.18
2024-05-09T01:12:41.472Z,4.90
2024-05-09T01:13:44.842Z,5.47
2024-05-09T01:14:47.145Z,5.82
2024-05-09T01:15:55.531Z,5.80
2024-05-09T01:16:58.117Z,5.45
2024-05-09T01:18:04.441Z,5.90
2024-05-09T01:19:13.968Z,6.00
2024-05-09T01:20:23.051Z,5.28
2024-05-09T01:21:33.631Z,5.20
2024-05-09T01:22:42.327Z,5.70
2024-05-09T01:23:47.169Z,5.60
2024-05-09T01:24:52.792Z,5.72
2024-05-09T01:25:54.863Z,5.78
2024-05-09T01:26:59.924Z,5.57
2024-05-09T01:28:02.167Z,5.30
2024-05-09T01:29:07.346Z,5.30
2024-05-09T01:30:14.921Z,5.43
2024-05-09T01:31:25.544Z,5.00
2024-05-09T01:32:27.864Z,5.43
2024-05-09T01:33:30.216Z,6.38
2024-05-09T01:34:35.395Z,5.90
2024-05-09T01:35:37.965Z,5.25
2024-05-09T01:36:43.055Z,5.25
2024-05-09T01:37:45.191Z,5.95
2024-05-09T01:38:52.820Z,6.00
2024-05-09T01:39:55.286Z,5.68
2024-05-09T01:41:01.138Z,5.78
2024-05-09T01:42:03.665Z,5.45
2024-05-09T01:43:09.772Z,5.40
2024-05-09T01:44:13.271Z,5.68
2024-05-09T01:45:18.548Z,5.72
2024-05-09T01:46:20.681Z,5.78
2024-05-09T01:47:25.654Z,4.68
2024-05-09T01:48:28.066Z,5.72
2024-05-09T01:49:35.300Z,6.32
2024-05-09T01:50:41.386Z,5.38
2024-05-09T01:51:47.790Z,5.40
2024-05-09T01:52:50.027Z,5.05
2024-05-09T01:53:58.973Z,4.95
2024-05-09T01:55:04.645Z,5.40
2024-05-09T01:56:12.204Z,5.00
2024-05-09T01:57:15.899Z,4.90
2024-05-09T01:58:20.680Z,4.57
2024-05-09T01:59:22.764Z,5.32
2024-05-09T02:00:37.865Z,5.45
2024-05-09T02:01:56.224Z,5.07
2024-05-09T02:03:02.703Z,5.07
2024-05-09T02:04:05.375Z,5.38
2024-05-09T02:05:10.998Z,4.85
2024-05-09T02:06:13.402Z,4.40
2024-05-09T02:07:18.277Z,4.70
2024-05-09T02:08:21.859Z,5.25
2024-05-09T02:09:30.008Z,5.10
2024-05-09T02:10:33.280Z,6.50
2024-05-09T02:11:43.823Z,4.90
2024-05-09T02:12:46.161Z,5.05
2024-05-09T02:13:51.151Z,4.75
2024-05-09T02:14:53.270Z,4.55
2024-05-09T02:15:59.370Z,4.30
2024-05-09T02:17:01.557Z,4.95
2024-05-09T02:18:07.139Z,5.05
2024-05-09T02:19:09.524Z,5.15
2024-05-09T02:20:22.558Z,4.80
2024-05-09T02:21:34.111Z,5.05
2024-05-09T02:22:39.187Z,6.00
2024-05-09T02:23:41.628Z,4.85
2024-05-09T02:24:49.131Z,5.43
2024-05-09T02:25:51.260Z,5.60
2024-05-09T02:26:56.110Z,5.10
2024-05-09T02:27:58.277Z,5.15
2024-05-09T02:29:03.086Z,5.40
2024-05-09T02:30:12.310Z,5.10
2024-05-09T02:31:23.311Z,5.50
2024-05-09T02:32:25.602Z,5.75
2024-05-09T02:33:28.063Z,5.45
2024-05-09T02:34:33.277Z,4.28
2024-05-09T02:35:35.577Z,5.25
2024-05-09T02:36:37.786Z,4.88
2024-05-09T02:37:42.764Z,5.65
2024-05-09T02:38:44.914Z,5.00
2024-05-09T02:39:50.058Z,5.43
2024-05-09T02:40:52.187Z,5.60
2024-05-09T02:41:57.131Z,6.05
2024-05-09T02:42:59.176Z,5.28
2024-05-09T02:44:01.652Z,5.88
2024-05-09T02:45:04.391Z,5.75
2024-05-09T02:46:09.990Z,5.50
2024-05-09T02:47:12.252Z,5.25
2024-05-09T02:48:14.586Z,5.70
2024-05-09T02:49:16.913Z,5.53
2024-05-09T02:50:29.891Z,5.85
2024-05-09T02:51:39.052Z,5.70
2024-05-09T02:52:41.103Z,6.15
2024-05-09T02:53:46.066Z,5.38
2024-05-09T02:54:51.196Z,4.70
2024-05-09T02:55:53.476Z,5.97
2024-05-09T02:56:55.617Z,5.53
2024-05-09T02:58:00.843Z,5.65
2024-05-09T02:59:03.011Z,5.97
2024-05-09T03:00:09.703Z,5.75
2024-05-09T03:01:17.542Z,5.38
2024-05-09T03:02:22.691Z,4.93
2024-05-09T03:03:25.192Z,5.55
2024-05-09T03:04:27.384Z,5.45
2024-05-09T03:05:29.663Z,5.68
2024-05-09T03:06:34.713Z,6.15
2024-05-09T03:07:36.841Z,6.40
2024-05-09T03:08:39.001Z,5.13
2024-05-09T03:09:46.420Z,6.00
2024-05-09T03:10:54.451Z,4.88
2024-05-09T03:11:56.866Z,5.95
2024-05-09T03:12:59.509Z,5.90
2024-05-09T03:14:01.709Z,5.10
2024-05-09T03:15:07.285Z,5.45
2024-05-09T03:16:09.702Z,5.22
2024-05-09T03:17:12.036Z,5.93
2024-05-09T03:18:15.840Z,5.85
2024-05-09T03:19:20.948Z,5.90
2024-05-09T03:20:27.621Z,6.07
2024-05-09T03:21:39.266Z,5.60
2024-05-09T03:22:44.169Z,5.55
2024-05-09T03:23:46.440Z,6.50
2024-05-09T03:24:48.976Z,5.10
2024-05-09T03:25:54.364Z,6.18
2024-05-09T03:26:59.150Z,5.47
2024-05-09T03:28:01.492Z,5.70
2024-05-09T03:29:04.111Z,6.03
2024-05-09T03:30:07.673Z,5.70
2024-05-09T03:31:14.953Z,5.75
2024-05-09T03:32:17.143Z,5.88
2024-05-09T03:33:20.554Z,5.63
2024-05-09T03:34:26.187Z,5.75
2024-05-09T03:35:28.389Z,5.45
2024-05-09T03:36:30.450Z,6.00
2024-05-09T03:37:35.270Z,5.93
2024-05-09T03:38:38.876Z,6.05
2024-05-09T03:39:40.955Z,5.75
2024-05-09T03:40:50.221Z,6.25
2024-05-09T03:41:55.654Z,5.45
2024-05-09T03:43:00.502Z,5.97
2024-05-09T03:44:02.659Z,5.70
2024-05-09T03:45:08.039Z,4.90
2024-05-09T03:46:10.069Z,6.32
2024-05-09T03:47:12.316Z,6.20
2024-05-09T03:48:14.734Z,6.38
2024-05-09T03:49:19.774Z,5.65
2024-05-09T03:50:29.952Z,5.20
2024-05-09T03:51:36.174Z,6.53
2024-05-09T03:52:41.119Z,6.03
2024-05-09T03:53:43.166Z,6.55
2024-05-09T03:54:46.903Z,6.60
2024-05-09T03:55:49.123Z,6.00
2024-05-09T03:56:54.402Z,6.15
2024-05-09T03:58:01.699Z,7.43
2024-05-09T03:59:03.968Z,7.60
2024-05-09T04:00:14.775Z,6.95
2024-05-09T04:01:32.049Z,7.05
2024-05-09T04:03:01.143Z,7.13
2024-05-09T04:04:05.017Z,6.70
2024-05-09T04:05:16.066Z,6.90
2024-05-09T04:06:46.308Z,7.03
2024-05-09T04:07:48.541Z,6.25
2024-05-09T04:13:45.425Z,5.65
2024-05-09T04:15:16.393Z,6.07
2024-05-09T04:16:33.622Z,6.60
2024-05-09T04:18:06.342Z,5.70
2024-05-09T04:19:09.512Z,5.88
2024-05-09T04:20:24.187Z,6.30
2024-05-09T05:01:24.120Z,5.65
2024-05-09T05:02:35.051Z,5.75
2024-05-09T05:03:42.106Z,5.47
2024-05-09T05:04:44.881Z,5.20
2024-05-09T05:05:47.240Z,5.10
2024-05-09T05:06:52.305Z,4.72
2024-05-09T05:07:54.706Z,5.22
2024-05-09T05:08:56.896Z,5.53
2024-05-09T05:09:58.986Z,5.32
2024-05-09T05:11:04.297Z,5.10
2024-05-09T05:12:27.446Z,5.65
2024-05-09T05:13:31.533Z,5.90
2024-05-09T05:14:33.732Z,5.50
2024-05-09T05:15:39.606Z,5.80
2024-05-09T05:16:43.492Z,5.05
2024-05-09T05:17:48.722Z,5.20
2024-05-09T05:18:52.534Z,5.68
2024-05-09T05:19:57.734Z,5.30
2024-05-09T05:21:00.007Z,5.32
2024-05-09T05:22:02.327Z,4.78
2024-05-09T05:23:14.684Z,5.90
2024-05-09T05:24:20.817Z,5.43
2024-05-09T05:25:23.196Z,5.38
2024-05-09T05:26:25.399Z,5.15
2024-05-09T05:27:27.584Z,5.80
2024-05-09T05:28:45.363Z,5.95
2024-05-09T05:29:47.573Z,5.47
2024-05-09T05:30:50.371Z,5.45
2024-05-09T05:31:55.416Z,5.65
2024-05-09T05:33:00.662Z,6.35
2024-05-09T05:34:05.490Z,5.03
2024-05-09T05:35:11.697Z,4.70
2024-05-09T05:36:19.209Z,5.47
2024-05-09T05:37:21.550Z,5.20
2024-05-09T05:38:27.286Z,5.07
2024-05-09T05:39:32.955Z,5.90
2024-05-09T05:40:41.233Z,5.13
2024-05-09T05:41:45.562Z,5.53
2024-05-09T05:42:51.794Z,5.70
2024-05-09T05:44:11.644Z,5.32
2024-05-09T05:45:24.519Z,4.93
2024-05-09T05:46:41.301Z,5.28
2024-05-09T05:47:49.508Z,6.30
2024-05-09T05:49:20.175Z,4.82
2024-05-09T05:50:35.465Z,5.70
2024-05-09T05:51:47.737Z,5.47
2024-05-09T05:53:10.192Z,5.22
2024-05-09T05:54:24.348Z,5.10
2024-05-09T05:55:29.125Z,5.40
2024-05-09T05:56:31.372Z,5.10
2024-05-09T05:57:35.838Z,5.28
2024-05-09T05:58:42.114Z,5.07
2024-05-09T05:59:44.195Z,5.80
2024-05-09T06:00:46.657Z,5.18
2024-05-09T06:01:48.779Z,5.80
2024-05-09T06:02:53.820Z,5.05
2024-05-09T06:03:58.753Z,4.90
2024-05-09T06:05:02.604Z,5.47
2024-05-09T06:06:07.691Z,5.20
2024-05-09T06:07:09.922Z,5.70
2024-05-09T06:08:12.517Z,5.45
2024-05-09T06:09:17.460Z,5.50
2024-05-09T06:10:25.420Z,5.63
2024-05-09T06:11:32.843Z,5.13
2024-05-09T06:12:35.010Z,5.05
2024-05-09T06:13:40.374Z,4.85
2024-05-09T06:14:47.896Z,5.93
2024-05-09T06:15:49.978Z,5.10
2024-05-09T06:16:54.714Z,4.65
2024-05-09T06:18:06.229Z,4.95
2024-05-09T06:19:11.510Z,5.10
2024-05-09T06:20:20.556Z,4.82
2024-05-09T06:21:33.049Z,5.00
2024-05-09T06:22:42.317Z,4.90
2024-05-09T06:23:48.540Z,4.30
2024-05-09T06:24:54.718Z,5.03
2024-05-09T06:26:13.378Z,4.55
2024-05-09T06:27:42.090Z,5.07
2024-05-09T06:28:50.214Z,5.10
2024-05-09T06:30:25.286Z,4.40
2024-05-09T06:31:45.163Z,4.45
2024-05-09T06:32:47.633Z,3.67
2024-05-09T06:33:49.892Z,4.43
2024-05-09T06:34:57.709Z,4.60
2024-05-09T06:35:59.886Z,4.85
2024-05-09T06:37:02.252Z,4.45
2024-05-09T06:38:04.839Z,4.65
2024-05-09T06:39:10.486Z,5.53
2024-05-09T06:40:14.608Z,4.45
2024-05-09T06:41:19.497Z,4.88
2024-05-09T06:42:21.594Z,4.80
2024-05-09T06:43:26.544Z,4.43
2024-05-09T06:44:30.219Z,4.50
2024-05-09T06:45:36.378Z,4.47
2024-05-09T06:46:40.305Z,4.53
2024-05-09T06:47:45.912Z,4.85
2024-05-09T06:48:52.578Z,3.95
2024-05-09T06:49:59.579Z,4.57
2024-05-09T06:51:07.635Z,4.65
2024-05-09T06:53:42.666Z,5.10
2024-05-09T06:54:45.386Z,4.65
2024-05-09T06:55:48.159Z,4.53
2024-05-09T06:56:57.634Z,4.13
2024-05-09T06:58:00.063Z,5.20
2024-05-09T06:59:08.606Z,4.25
2024-05-09T07:00:27.236Z,4.53
2024-05-09T07:01:37.013Z,4.57
2024-05-09T07:02:39.837Z,4.28
2024-05-09T07:03:42.258Z,4.00
2024-05-09T07:04:47.437Z,4.78
2024-05-09T07:05:54.767Z,4.82
2024-05-09T07:06:57.493Z,4.05
2024-05-09T07:07:59.639Z,4.25
2024-05-09T07:09:01.862Z,4.75
2024-05-09T07:10:10.040Z,4.40
2024-05-09T07:11:15.036Z,4.50
2024-05-09T07:12:17.235Z,4.82
2024-05-09T07:13:19.406Z,4.07
2024-05-09T07:14:21.634Z,4.57
2024-05-09T07:15:26.400Z,4.35
2024-05-09T07:16:28.472Z,5.25
2024-05-09T07:17:30.717Z,4.30
2024-05-09T07:18:33.053Z,4.43
2024-05-09T07:19:38.355Z,4.28
2024-05-09T07:20:40.953Z,4.65
2024-05-09T07:21:45.929Z,4.72
2024-05-09T07:22:48.296Z,4.53
2024-05-09T07:23:53.742Z,4.47
2024-05-09T07:24:56.163Z,4.85
2024-05-09T07:25:58.719Z,4.40
2024-05-09T07:27:00.901Z,3.80
2024-05-09T07:28:05.894Z,3.95
2024-05-09T07:29:08.129Z,4.13
2024-05-09T07:30:19.921Z,4.97
2024-05-09T07:31:30.546Z,4.32
2024-05-09T07:32:32.831Z,4.65
2024-05-09T07:33:35.068Z,4.25
2024-05-09T07:34:40.229Z,4.88
2024-05-09T07:35:42.409Z,4.20
2024-05-09T07:36:47.460Z,4.53
2024-05-09T07:37:50.103Z,4.82
2024-05-09T07:38:55.087Z,5.03
2024-05-09T07:39:57.228Z,4.28
2024-05-09T07:40:59.645Z,5.07
2024-05-09T07:42:01.774Z,4.63
2024-05-09T07:43:07.053Z,4.72
2024-05-09T07:44:09.383Z,4.18
2024-05-09T07:45:29.771Z,4.35
2024-05-09T07:47:44.998Z,4.38
2024-05-09T07:50:53.334Z,4.65
2024-05-09T07:53:35.257Z,4.97
2024-05-09T07:54:12.119Z,4.90
2024-05-09T07:55:17.267Z,5.97
2024-05-09T07:56:22.400Z,4.85
2024-05-09T07:57:25.948Z,4.40
2024-05-09T07:58:28.077Z,4.85
2024-05-09T07:59:37.136Z,4.82
2024-05-09T08:00:40.013Z,4.32
2024-05-09T08:01:42.380Z,4.40
2024-05-09T08:02:47.300Z,4.15
2024-05-09T08:03:49.716Z,4.60
2024-05-09T08:04:52.113Z,4.70
2024-05-09T08:05:57.143Z,4.53
2024-05-09T08:06:59.380Z,4.80
2024-05-09T08:08:04.652Z,4.60
2024-05-09T08:09:13.866Z,4.25
2024-05-09T08:10:24.684Z,4.70
2024-05-09T08:11:32.547Z,4.60
2024-05-09T08:12:37.521Z,4.50
2024-05-09T08:13:39.620Z,4.88
2024-05-09T08:14:41.750Z,4.90
2024-05-09T08:15:47.008Z,4.50
2024-05-09T08:16:49.232Z,4.40
2024-05-09T08:17:51.383Z,4.75
2024-05-09T08:18:56.630Z,4.65
2024-05-09T08:19:58.770Z,4.32
2024-05-09T08:21:00.915Z,4.13
2024-05-09T08:22:07.068Z,4.20
2024-05-09T08:23:12.114Z,4.20
2024-05-09T08:24:14.252Z,4.53
2024-05-09T08:25:19.351Z,4.75
2024-05-09T08:26:21.543Z,3.92
2024-05-09T08:27:26.268Z,4.40
2024-05-09T08:28:31.096Z,4.28
2024-05-09T08:29:33.157Z,4.25
2024-05-09T08:30:37.367Z,4.78
2024-05-09T08:31:43.062Z,4.30
2024-05-09T08:32:47.900Z,4.30
2024-05-09T08:33:51.644Z,3.97
2024-05-09T08:34:57.000Z,4.65
2024-05-09T08:35:59.250Z,4.63
2024-05-09T08:37:03.886Z,5.03
2024-05-09T08:38:15.178Z,3.55
2024-05-09T08:39:20.472Z,4.03
2024-05-09T08:40:30.669Z,3.90
2024-05-09T08:41:38.034Z,3.67
2024-05-09T08:42:48.282Z,3.80
2024-05-09T08:43:55.830Z,3.65
2024-05-09T08:44:58.020Z,4.03
2024-05-09T08:46:00.412Z,4.35
2024-05-09T08:47:08.702Z,4.00
2024-05-09T08:48:16.492Z,3.38
2024-05-09T08:49:18.967Z,4.00
2024-05-09T08:50:32.049Z,3.53
2024-05-09T08:51:43.102Z,3.70
2024-05-09T08:52:45.273Z,3.83
2024-05-09T08:53:50.229Z,3.78
2024-05-09T08:54:55.183Z,3.85
2024-05-09T08:56:01.066Z,4.47
2024-05-09T08:57:06.250Z,4.05
2024-05-09T08:58:10.471Z,3.70
2024-05-09T08:59:19.960Z,3.30
2024-05-09T09:00:33.405Z,3.35
2024-05-09T09:01:41.716Z,3.03
2024-05-09T09:02:45.103Z,3.38
2024-05-09T09:03:51.409Z,2.80
2024-05-09T09:05:00.331Z,3.83
2024-05-09T09:06:05.894Z,3.70
2024-05-09T09:07:10.904Z,3.78
2024-05-09T09:08:14.740Z,3.45
2024-05-09T09:09:23.019Z,3.60
2024-05-09T09:10:32.152Z,3.28
2024-05-09T09:11:35.325Z,3.20
2024-05-09T09:12:40.378Z,3.17
2024-05-09T09:13:42.545Z,3.67
2024-05-09T09:14:47.490Z,3.33
2024-05-09T09:15:50.348Z,3.30
2024-05-09T09:16:53.247Z,3.67
2024-05-09T09:17:59.711Z,4.15
2024-05-09T09:19:03.232Z,3.03
2024-05-09T09:20:09.025Z,3.10
2024-05-09T09:21:16.012Z,3.50
2024-05-09T09:22:22.112Z,2.53
2024-05-09T09:23:24.399Z,3.15
2024-05-09T09:24:29.429Z,3.40
2024-05-09T09:25:32.024Z,3.67
2024-05-09T09:26:36.985Z,3.45
2024-05-09T09:27:39.444Z,3.40
2024-05-09T09:28:41.506Z,3.45
2024-05-09T09:29:43.815Z,3.30
2024-05-09T09:30:48.849Z,3.55
2024-05-09T09:31:58.604Z,2.70
2024-05-09T09:33:00.769Z,3.53
2024-05-09T09:34:10.297Z,3.92
2024-05-09T09:35:12.657Z,3.65
2024-05-09T09:36:15.195Z,3.95
2024-05-09T09:37:22.904Z,3.50
2024-05-09T09:38:31.032Z,3.85
2024-05-09T09:39:37.634Z,4.25
2024-05-09T09:40:49.607Z,3.50
2024-05-09T09:41:55.995Z,3.40
2024-05-09T09:43:00.721Z,3.88
2024-05-09T09:44:04.251Z,3.60
2024-05-09T09:45:10.258Z,3.70
2024-05-09T09:46:14.566Z,3.75
2024-05-09T09:47:18.136Z,3.15
2024-05-09T09:48:22.811Z,2.80
2024-05-09T09:49:28.855Z,3.17
2024-05-09T09:50:34.800Z,3.80
2024-05-09T09:51:43.488Z,3.20
2024-05-09T09:52:49.277Z,3.50
2024-05-09T09:53:53.580Z,3.42
2024-05-09T09:54:59.592Z,3.50
2024-05-09T09:56:05.880Z,3.35
2024-05-09T09:57:09.024Z,3.80
2024-05-09T09:58:13.933Z,3.67
2024-05-09T09:59:16.769Z,3.05
2024-05-09T10:00:30.587Z,3.63
2024-05-09T10:01:36.449Z,3.63
2024-05-09T10:02:39.546Z,3.80
2024-05-09T10:03:45.596Z,3.90
2024-05-09T10:04:48.206Z,3.78
2024-05-09T10:05:53.027Z,3.35
2024-05-09T10:06:58.351Z,3.17
2024-05-09T10:08:07.858Z,3.20
2024-05-09T10:09:13.420Z,3.50
2024-05-09T10:10:31.860Z,3.22
2024-05-09T10:11:45.151Z,3.05
2024-05-09T10:12:58.716Z,3.22
2024-05-09T10:14:01.939Z,2.78
2024-05-09T10:15:11.152Z,2.90
2024-05-09T10:16:13.372Z,2.22
2024-05-09T10:17:15.727Z,2.72
2024-05-09T10:18:22.724Z,2.90
2024-05-09T10:19:28.981Z,2.90
2024-05-09T10:20:40.273Z,3.30
2024-05-09T10:21:47.050Z,3.30
2024-05-09T10:22:50.673Z,3.10
2024-05-09T10:24:02.648Z,2.92
2024-05-09T10:25:06.730Z,3.53
2024-05-09T10:26:11.644Z,3.30
2024-05-09T10:27:16.876Z,3.40
2024-05-09T10:28:19.114Z,2.88
2024-05-09T10:29:24.039Z,2.95
2024-05-09T10:30:34.071Z,3.42
2024-05-09T10:31:44.081Z,2.75
2024-05-09T10:32:46.340Z,2.80
2024-05-09T10:33:51.563Z,3.42
2024-05-09T10:35:01.083Z,3.42
2024-05-09T10:36:09.420Z,3.25
2024-05-09T10:37:11.849Z,3.08
2024-05-09T10:38:14.104Z,2.85
2024-05-09T10:39:16.399Z,3.25
2024-05-09T10:40:26.592Z,3.60
2024-05-09T10:41:38.235Z,3.47
2024-05-09T10:42:41.753Z,2.72
2024-05-09T10:43:46.856Z,3.03
2024-05-09T10:44:48.990Z,2.90
2024-05-09T10:45:52.242Z,3.20
2024-05-09T10:46:55.276Z,2.70
2024-05-09T10:48:00.555Z,3.50
2024-05-09T10:49:06.200Z,3.30
2024-05-09T10:50:18.370Z,3.40
2024-05-09T10:51:30.351Z,3.28
2024-05-09T10:52:35.042Z,3.65
2024-05-09T10:53:46.784Z,3.25
2024-05-09T10:54:52.968Z,3.28
2024-05-09T10:55:57.888Z,2.60
2024-05-09T10:57:02.747Z,3.10
2024-05-09T10:58:05.182Z,3.58
2024-05-09T10:59:09.947Z,3.38
2024-05-09T11:00:19.045Z,3.25
2024-05-09T11:01:25.646Z,3.10
2024-05-09T11:02:28.209Z,2.92
2024-05-09T11:03:33.269Z,3.33
2024-05-09T11:04:37.659Z,2.40
2024-05-09T11:05:43.051Z,3.50
2024-05-09T11:06:46.879Z,2.80
2024-05-09T11:07:51.838Z,2.85
2024-05-09T11:08:54.172Z,2.92
2024-05-09T11:09:56.388Z,2.90
2024-05-09T11:10:59.616Z,3.25
2024-05-09T11:12:08.060Z,3.05
2024-05-09T11:13:10.471Z,3.45
2024-05-09T11:14:12.991Z,2.95
2024-05-09T11:15:18.072Z,3.13
2024-05-09T11:16:21.362Z,2.90
2024-05-09T11:17:23.851Z,3.35
2024-05-09T11:18:29.754Z,3.05
2024-05-09T11:19:40.215Z,2.83
2024-05-09T11:20:42.626Z,3.00
2024-05-09T11:21:51.259Z,2.88
2024-05-09T11:22:56.207Z,2.70
2024-05-09T11:23:58.964Z,3.03
2024-05-09T11:25:01.183Z,3.40
2024-05-09T11:26:06.536Z,2.83
2024-05-09T11:27:11.307Z,2.90
2024-05-09T11:28:13.728Z,3.30
2024-05-09T11:29:19.730Z,3.30
2024-05-09T11:30:30.094Z,3.20
2024-05-09T11:31:44.691Z,3.22
2024-05-09T11:32:47.756Z,3.00
2024-05-09T11:33:50.196Z,3.38
2024-05-09T11:34:55.191Z,3.00
2024-05-09T11:35:57.391Z,2.95
2024-05-09T11:36:59.652Z,2.70
2024-05-09T11:38:01.826Z,3.30
2024-05-09T11:39:06.794Z,2.78
2024-05-09T11:40:13.852Z,3.35
2024-05-09T11:41:23.784Z,3.10
2024-05-09T11:42:28.515Z,3.17
2024-05-09T11:43:33.670Z,2.80
2024-05-09T11:44:36.005Z,2.90
2024-05-09T11:45:38.113Z,3.10
2024-05-09T11:46:40.238Z,2.88
2024-05-09T11:47:45.222Z,3.00
2024-05-09T11:48:47.470Z,3.17
2024-05-09T11:49:49.728Z,2.78
2024-05-09T11:50:55.134Z,2.47
2024-05-09T11:51:57.442Z,2.70
2024-05-09T11:52:59.525Z,3.00
2024-05-09T11:54:04.389Z,2.42
2024-05-09T11:55:07.031Z,2.10
2024-05-09T11:56:11.596Z,1.90
2024-05-09T11:57:16.440Z,3.13
2024-05-09T11:58:22.999Z,2.35
2024-05-09T11:59:25.280Z,2.13
2024-05-09T12:00:34.138Z,2.72
2024-05-09T12:01:43.345Z,2.40
2024-05-09T12:02:45.649Z,2.40
2024-05-09T12:03:49.406Z,2.75
2024-05-09T12:04:51.800Z,2.45
2024-05-09T12:05:57.017Z,2.63
2024-05-09T12:06:59.326Z,2.47
2024-05-09T12:08:02.008Z,2.50
2024-05-09T12:09:07.103Z,2.20
2024-05-09T12:10:16.466Z,2.95
2024-05-09T12:11:22.428Z,2.35
2024-05-09T12:12:28.402Z,2.35
2024-05-09T12:13:33.211Z,2.40
2024-05-09T12:14:35.579Z,2.15
2024-05-09T12:15:38.646Z,2.45
2024-05-09T12:16:44.327Z,2.65
2024-05-09T12:17:49.582Z,2.22
2024-05-09T12:18:52.816Z,2.50
2024-05-09T12:19:54.983Z,2.70
2024-05-09T12:21:00.058Z,2.28
2024-05-09T12:22:02.215Z,2.72
2024-05-09T12:23:04.734Z,2.50
2024-05-09T12:24:09.709Z,2.10
2024-05-09T12:25:11.948Z,2.92
2024-05-09T12:26:15.809Z,2.65
2024-05-09T12:27:21.106Z,2.40
2024-05-09T12:28:26.458Z,3.00
2024-05-09T12:29:31.365Z,2.45
2024-05-09T12:30:38.158Z,2.40
2024-05-09T12:31:45.297Z,2.50
2024-05-09T12:32:48.738Z,2.47
2024-05-09T12:33:51.730Z,2.40
2024-05-09T12:34:53.893Z,2.40
2024-05-09T12:35:58.855Z,2.90
2024-05-09T12:37:01.145Z,2.28
2024-05-09T12:38:03.750Z,2.40
2024-05-09T12:39:09.528Z,1.90
2024-05-09T12:40:18.767Z,2.33
2024-05-09T12:41:28.670Z,2.08
2024-05-09T12:42:33.921Z,2.22
2024-05-09T12:43:36.123Z,2.10
2024-05-09T12:44:40.956Z,2.22
2024-05-09T12:45:45.906Z,2.20
2024-05-09T12:46:48.260Z,2.28
2024-05-09T12:47:50.477Z,2.78
2024-05-09T12:48:53.403Z,2.28
2024-05-09T12:49:58.568Z,2.65
2024-05-09T12:51:00.650Z,2.60
2024-05-09T12:52:03.033Z,2.17
2024-05-09T12:53:05.782Z,1.92
2024-05-09T12:54:10.479Z,2.97
2024-05-09T12:55:12.863Z,3.03
2024-05-09T12:56:15.079Z,2.25
2024-05-09T12:57:20.112Z,2.78
2024-05-09T12:58:22.844Z,2.70
2024-05-09T12:59:28.069Z,2.30
2024-05-09T13:00:34.356Z,2.38
2024-05-09T13:01:39.509Z,2.20
2024-05-09T13:02:41.717Z,1.77
2024-05-09T13:03:44.101Z,2.00
2024-05-09T13:04:46.538Z,2.40
2024-05-09T13:05:52.101Z,1.90
2024-05-09T13:06:54.519Z,2.22
2024-05-09T13:07:57.219Z,1.98
2024-05-09T13:08:59.937Z,2.50
2024-05-09T13:10:06.977Z,2.40
2024-05-09T13:11:14.313Z,2.40
2024-05-09T13:12:16.513Z,2.58
2024-05-09T13:13:18.780Z,2.42
2024-05-09T13:14:23.827Z,1.80
2024-05-09T13:15:26.067Z,2.45
2024-05-09T13:16:31.208Z,2.30
2024-05-09T13:17:33.493Z,2.10
2024-05-09T13:18:38.551Z,2.45
2024-05-09T13:19:40.681Z,2.47
2024-05-09T13:20:42.853Z,2.35
2024-05-09T13:21:45.025Z,2.10
2024-05-09T13:22:48.177Z,2.20
2024-05-09T13:23:53.050Z,2.25
2024-05-09T13:24:55.187Z,2.13
2024-05-09T13:25:57.321Z,2.17
2024-05-09T13:26:59.563Z,2.05
2024-05-09T13:28:05.132Z,1.42
2024-05-09T13:29:07.331Z,1.60
2024-05-09T13:30:14.559Z,2.05
2024-05-09T13:31:20.117Z,2.30
2024-05-09T13:32:27.966Z,2.35
2024-05-09T13:33:30.364Z,1.75
2024-05-09T13:34:32.713Z,2.20
2024-05-09T13:35:37.508Z,2.00
2024-05-09T13:36:39.813Z,1.73
2024-05-09T13:37:42.367Z,2.42
2024-05-09T13:38:47.148Z,2.10
2024-05-09T13:39:49.324Z,3.08
2024-05-09T13:40:51.707Z,2.25
2024-05-09T13:41:56.490Z,2.33
2024-05-09T13:43:01.891Z,2.20
2024-05-09T13:44:04.253Z,1.95
2024-05-09T13:45:06.846Z,2.08
2024-05-09T13:46:12.414Z,2.13
2024-05-09T13:47:14.846Z,2.88
2024-05-09T13:48:20.002Z,1.80
2024-05-09T13:49:22.371Z,1.95
2024-05-09T13:50:33.441Z,2.25
2024-05-09T13:51:38.143Z,1.88
2024-05-09T13:52:40.261Z,2.17
2024-05-09T13:53:45.095Z,1.60
2024-05-09T13:54:48.422Z,2.17
2024-05-09T13:55:50.768Z,2.78
2024-05-09T13:56:52.870Z,2.20
2024-05-09T13:57:58.256Z,2.15
2024-05-09T13:59:00.458Z,1.90
2024-05-09T14:00:03.656Z,2.03
2024-05-09T14:01:06.251Z,2.42
2024-05-09T14:02:11.635Z,1.95
2024-05-09T14:03:14.783Z,2.08
2024-05-09T14:04:20.259Z,2.10
2024-05-09T14:05:22.653Z,1.90
2024-05-09T14:06:27.574Z,2.63
2024-05-09T14:07:29.757Z,2.13
2024-05-09T14:08:31.933Z,2.80
2024-05-09T14:09:36.684Z,2.42
2024-05-09T14:10:44.429Z,1.95
2024-05-09T14:11:47.065Z,2.47
2024-05-09T14:12:52.067Z,2.22
2024-05-09T14:13:54.333Z,2.15
2024-05-09T14:14:56.397Z,2.10
2024-05-09T14:16:01.821Z,1.88
2024-05-09T14:17:04.202Z,2.10
2024-05-09T14:18:10.368Z,2.55
2024-05-09T14:19:17.796Z,2.10
2024-05-09T14:20:30.158Z,2.20
2024-05-09T14:21:34.239Z,2.38
2024-05-09T14:22:41.274Z,1.92
2024-05-09T14:23:43.324Z,1.98
2024-05-09T14:24:45.809Z,2.60
2024-05-09T14:25:51.749Z,1.90
2024-05-09T14:26:57.385Z,2.20
2024-05-09T14:27:59.953Z,1.77
2024-05-09T14:29:02.139Z,2.00
2024-05-09T14:30:09.541Z,1.60
2024-05-09T14:31:19.768Z,2.38
2024-05-09T14:32:22.193Z,2.35
2024-05-09T14:33:26.844Z,2.30
2024-05-09T14:34:29.234Z,2.38
2024-05-09T14:35:34.309Z,2.58
2024-05-09T14:36:39.464Z,2.13
2024-05-09T14:37:41.795Z,2.72
2024-05-09T14:38:43.924Z,2.45
2024-05-09T14:39:48.925Z,2.33
2024-05-09T14:40:51.466Z,2.22
2024-05-09T14:41:53.623Z,2.50
2024-05-09T14:42:56.210Z,2.33
2024-05-09T14:44:01.960Z,2.85
2024-05-09T14:45:06.203Z,2.72
2024-05-09T14:46:08.387Z,2.53
2024-05-09T14:47:13.165Z,2.63
2024-05-09T14:48:16.199Z,3.45
2024-05-09T14:49:18.690Z,3.17
2024-05-09T14:50:28.032Z,2.25
2024-05-09T14:51:42.808Z,2.65
2024-05-09T14:52:44.868Z,2.30
2024-05-09T14:53:46.865Z,2.67
2024-05-09T14:54:59.486Z,2.58
2024-05-09T14:56:05.351Z,2.30
2024-05-09T14:57:07.697Z,2.35
2024-05-09T14:58:10.782Z,2.35
2024-05-09T14:59:13.099Z,2.15
2024-05-09T15:00:26.088Z,2.13
2024-05-09T15:01:31.724Z,2.60
2024-05-09T15:02:34.173Z,2.45
2024-05-09T15:03:39.540Z,2.28
2024-05-09T15:04:41.700Z,1.90
2024-05-09T15:05:44.324Z,2.03
2024-05-09T15:06:49.996Z,2.10
2024-05-09T15:07:54.852Z,1.50
2024-05-09T15:08:57.758Z,2.22
2024-05-09T15:09:59.926Z,2.88
2024-05-09T15:11:02.192Z,1.55
2024-05-09T15:12:09.378Z,1.83
2024-05-09T15:13:13.287Z,2.38
2024-05-09T15:14:17.518Z,2.00
2024-05-09T15:15:19.637Z,1.95
2024-05-09T15:16:24.706Z,2.40
2024-05-09T15:17:26.858Z,1.85
2024-05-09T15:18:30.234Z,1.83
2024-05-09T15:19:32.566Z,2.20